Time;durP1;ratioP1;P1;durP2;ratioP2;P2;SDS_P1;SDS_P2;PMS_P1;PMS_P2;Temp;Humidity;BMP_temperature;BMP_pressure;BME280_temperature;BME280_humidity;BME280_pressure;Samples;Min_cycle;Max_cycle;Signal;HPM_P1;HPM_P2
2023/01/05 00:00:54;;;;;;;2.07;0.70;;;;;;;;;;4913745;29;20742;-63
2023/01/05 00:03:21;;;;;;;2.03;0.50;;;;;;;;;;4913421;29;20183;-63
2023/01/05 00:05:47;;;;;;;1.20;0.50;;;;;;;;;;4913502;29;20663;-63
2023/01/05 00:08:14;;;;;;;1.57;0.50;;;;;;;;;;4913397;29;20876;-63
2023/01/05 00:24:45;;;;;;;2.60;0.90;;;;;;;;;;4913444;29;20187;-63
2023/01/05 00:27:12;;;;;;;3.20;1.00;;;;;;;;;;4913079;29;20260;-64
2023/01/05 00:29:39;;;;;;;2.73;0.90;;;;;;;;;;4911941;29;20417;-63
2023/01/05 00:32:05;;;;;;;3.63;1.20;;;;;;;;;;4913200;29;20988;-64
2023/01/05 00:34:32;;;;;;;3.17;1.17;;;;;;;;;;4913107;29;20686;-63
2023/01/05 00:37:00;;;;;;;2.30;0.67;;;;;;;;;;4911810;29;20566;-63
2023/01/05 00:39:26;;;;;;;5.30;1.60;;;;;;;;;;4913527;29;20686;-63
2023/01/05 00:41:53;;;;;;;6.43;1.23;;;;;;;;;;4913030;29;20247;-64
2023/01/05 00:44:19;;;;;;;4.73;1.57;;;;;;;;;;4913002;29;20706;-63
2023/01/05 00:46:46;;;;;;;7.20;2.23;;;;;;;;;;4913341;29;20188;-63
2023/01/05 00:49:13;;;;;;;8.97;1.90;;;;;;;;;;4896147;29;20199;-63
2023/01/05 00:51:39;;;;;;;9.57;2.20;;;;;;;;;;4916556;29;20729;-63
2023/01/05 00:54:06;;;;;;;8.97;2.00;;;;;;;;;;4931810;29;20194;-64
2023/01/05 00:56:33;;;;;;;9.73;1.83;;;;;;;;;;4931957;29;20191;-63
2023/01/05 00:58:59;;;;;;;7.60;1.73;;;;;;;;;;4914889;29;20745;-63
2023/01/05 01:01:26;;;;;;;7.87;1.67;;;;;;;;;;4915017;29;20190;-63
2023/01/05 01:03:54;;;;;;;8.93;2.10;;;;;;;;;;4931977;29;20686;-63
2023/01/05 01:06:21;;;;;;;6.90;1.40;;;;;;;;;;4915020;29;20266;-63
2023/01/05 01:08:48;;;;;;;6.83;2.20;;;;;;;;;;4931899;29;20571;-63
2023/01/05 01:11:17;;;;;;;10.57;2.23;;;;;;;;;;4931562;29;20222;-63
2023/01/05 01:13:44;;;;;;;10.23;2.17;;;;;;;;;;4920829;29;20549;-63
2023/01/05 01:16:11;;;;;;;9.77;2.17;;;;;;;;;;4912914;29;20187;-63
2023/01/05 01:18:55;;;;;;;11.17;2.00;;;;;;;;;;4913044;29;20180;-63
2023/01/05 01:21:22;;;;;;;10.27;2.57;;;;;;;;;;4911739;29;20199;-64
2023/01/05 01:24:06;;;;;;;9.10;1.93;;;;;;;;;;4912685;29;20266;-64
2023/01/05 01:26:33;;;;;;;13.30;2.60;;;;;;;;;;4908241;29;20236;-63
2023/01/05 01:29:00;;;;;;;16.33;2.73;;;;;;;;;;4909213;29;20549;-63
2023/01/05 01:31:26;;;;;;;15.93;2.93;;;;;;;;;;4911779;29;20227;-63
2023/01/05 01:33:53;;;;;;;12.37;2.43;;;;;;;;;;4897730;29;20548;-64
2023/01/05 01:36:20;;;;;;;12.13;2.67;;;;;;;;;;4916359;29;20192;-63
2023/01/05 01:38:47;;;;;;;6.33;1.70;;;;;;;;;;4914791;29;20205;-63
2023/01/05 01:41:14;;;;;;;14.10;2.37;;;;;;;;;;4915932;29;20191;-64
2023/01/05 02:19:06;;;;;;;7.13;1.90;;;;;;;;;;4894777;29;20194;-64
2023/01/05 02:21:43;;;;;;;9.17;1.50;;;;;;;;;;4896656;29;20207;-64
2023/01/05 02:24:10;;;;;;;5.70;2.07;;;;;;;;;;4894873;29;20263;-63
2023/01/05 02:27:00;;;;;;;5.13;1.53;;;;;;;;;;4894781;29;20291;-64
2023/01/05 02:29:37;;;;;;;5.33;1.50;;;;;;;;;;4895027;29;20226;-63
2023/01/05 02:32:08;;;;;;;5.33;1.30;;;;;;;;;;4896396;29;20646;-63
2023/01/05 02:34:54;;;;;;;5.13;2.00;;;;;;;;;;4910292;29;20192;-63
2023/01/05 02:37:31;;;;;;;6.40;1.80;;;;;;;;;;4910659;29;20200;-63
2023/01/05 02:39:58;;;;;;;7.77;1.63;;;;;;;;;;4893976;29;20337;-63
2023/01/05 02:42:26;;;;;;;10.37;1.90;;;;;;;;;;4910906;29;20207;-63
2023/01/05 02:44:53;;;;;;;10.47;2.60;;;;;;;;;;4894522;29;20287;-64
2023/01/05 02:47:28;;;;;;;8.90;1.90;;;;;;;;;;4895631;29;20264;-63
2023/01/05 02:50:23;;;;;;;10.27;2.00;;;;;;;;;;4910267;29;20191;-63
2023/01/05 02:52:53;;;;;;;8.97;1.63;;;;;;;;;;4913359;29;20201;-64
2023/01/05 02:55:41;;;;;;;4.40;1.27;;;;;;;;;;4913078;29;20647;-63
2023/01/05 02:58:10;;;;;;;7.47;1.90;;;;;;;;;;4897956;29;20687;-64
2023/01/05 03:00:43;;;;;;;5.80;1.03;;;;;;;;;;4898375;29;20259;-63
2023/01/05 03:03:10;;;;;;;7.67;1.90;;;;;;;;;;4909353;29;20268;-63
2023/01/05 03:05:41;;;;;;;5.20;1.03;;;;;;;;;;4894106;29;20196;-63
2023/01/05 03:08:09;;;;;;;7.50;1.30;;;;;;;;;;4910116;29;20200;-63
2023/01/05 03:13:58;;;;;;;2.37;0.93;;;;;;;;;;4909926;29;20283;-63
2023/01/05 03:16:28;;;;;;;3.43;0.80;;;;;;;;;;4910053;29;20230;-63
2023/01/05 03:35:38;;;;;;;2.90;0.80;;;;;;;;;;4909351;29;20283;-63
2023/01/05 03:38:08;;;;;;;4.50;0.80;;;;;;;;;;4909790;29;20566;-63
2023/01/05 03:40:43;;;;;;;1.63;0.60;;;;;;;;;;4909324;29;20198;-63
2023/01/05 03:43:10;;;;;;;3.17;1.00;;;;;;;;;;4909774;29;20196;-63
2023/01/05 03:45:57;;;;;;;2.57;0.70;;;;;;;;;;4893637;29;20284;-62
2023/01/05 03:48:26;;;;;;;1.77;0.50;;;;;;;;;;4909862;29;20223;-62
2023/01/05 03:50:53;;;;;;;1.63;0.70;;;;;;;;;;4893101;29;20873;-63
2023/01/05 03:53:22;;;;;;;3.80;1.17;;;;;;;;;;4902597;29;20615;-63
2023/01/05 03:55:49;;;;;;;1.10;0.80;;;;;;;;;;4913636;29;20195;-63
2023/01/05 03:58:36;;;;;;;2.43;1.13;;;;;;;;;;4909259;29;20187;-62
2023/01/05 04:01:03;;;;;;;1.63;0.87;;;;;;;;;;4894792;29;20229;-63
2023/01/05 04:03:30;;;;;;;2.20;0.60;;;;;;;;;;4909629;29;20214;-63
2023/01/05 04:06:01;;;;;;;4.40;1.03;;;;;;;;;;4909026;29;20215;-63
2023/01/05 04:08:30;;;;;;;1.97;0.63;;;;;;;;;;4909448;29;20242;-63
2023/01/05 04:11:18;;;;;;;0.97;0.70;;;;;;;;;;4908944;29;20216;-63
2023/01/05 04:13:50;;;;;;;2.20;0.67;;;;;;;;;;4908994;29;20212;-63
2023/01/05 04:16:17;;;;;;;1.27;0.87;;;;;;;;;;4908981;29;20204;-62
2023/01/05 04:18:44;;;;;;;1.50;0.50;;;;;;;;;;4910251;29;20212;-64
2023/01/05 04:21:14;;;;;;;0.80;0.50;;;;;;;;;;4909802;29;20203;-63
2023/01/05 04:23:42;;;;;;;1.67;0.50;;;;;;;;;;4927870;29;20301;-62
2023/01/05 04:26:08;;;;;;;1.20;0.60;;;;;;;;;;4937005;28;20288;-65
2023/01/05 04:28:36;;;;;;;2.70;0.73;;;;;;;;;;4934205;29;20699;-64
2023/01/05 04:31:23;;;;;;;1.63;0.63;;;;;;;;;;4934070;29;20222;-65
2023/01/05 04:33:53;;;;;;;0.97;0.60;;;;;;;;;;4950018;28;20214;-63
2023/01/05 04:36:22;;;;;;;1.83;0.90;;;;;;;;;;4934270;29;20321;-63
2023/01/05 04:38:49;;;;;;;2.77;0.60;;;;;;;;;;4925331;29;20199;-65
2023/01/05 04:41:16;;;;;;;0.70;0.53;;;;;;;;;;4895882;29;20203;-63
2023/01/05 04:43:46;;;;;;;1.57;0.67;;;;;;;;;;4911944;29;20196;-63
2023/01/05 04:46:13;;;;;;;1.10;0.70;;;;;;;;;;4911606;29;20231;-63
2023/01/05 04:48:43;;;;;;;1.93;0.60;;;;;;;;;;4909602;29;20234;-64
2023/01/05 04:51:11;;;;;;;1.87;1.10;;;;;;;;;;4916837;29;20215;-63
2023/01/05 04:53:38;;;;;;;1.87;0.90;;;;;;;;;;4934356;28;20210;-62
2023/01/05 04:56:09;;;;;;;2.97;0.93;;;;;;;;;;4938159;29;20233;-62
2023/01/05 04:58:39;;;;;;;3.47;1.13;;;;;;;;;;4916391;29;20234;-63
2023/01/05 05:01:06;;;;;;;2.70;1.30;;;;;;;;;;4916139;29;20207;-62
2023/01/05 05:03:34;;;;;;;2.73;1.00;;;;;;;;;;4920997;29;20286;-62
2023/01/05 05:06:04;;;;;;;2.97;0.97;;;;;;;;;;4917572;29;20302;-62
2023/01/05 05:08:31;;;;;;;3.97;1.60;;;;;;;;;;4915723;29;20634;-63
2023/01/05 05:10:59;;;;;;;3.27;1.40;;;;;;;;;;4922470;29;20210;-62
2023/01/05 05:13:46;;;;;;;4.80;1.30;;;;;;;;;;4911117;29;20945;-63
2023/01/05 05:16:13;;;;;;;3.43;0.90;;;;;;;;;;4911452;29;20199;-62
2023/01/05 05:18:42;;;;;;;3.30;1.43;;;;;;;;;;4900726;29;20217;-63
2023/01/05 05:21:14;;;;;;;2.47;0.90;;;;;;;;;;4912801;29;20271;-63
2023/01/05 05:23:41;;;;;;;2.63;0.70;;;;;;;;;;4921343;29;20200;-63
2023/01/05 05:26:08;;;;;;;2.63;0.73;;;;;;;;;;4914386;29;20740;-64
2023/01/05 05:28:35;;;;;;;4.40;1.30;;;;;;;;;;4913822;29;20307;-65
2023/01/05 05:31:02;;;;;;;2.97;0.90;;;;;;;;;;4913050;29;20263;-63
2023/01/05 05:33:28;;;;;;;3.27;0.97;;;;;;;;;;4912307;29;20191;-63
2023/01/05 05:35:55;;;;;;;5.07;1.50;;;;;;;;;;4914288;29;20230;-63
2023/01/05 05:38:22;;;;;;;3.83;1.10;;;;;;;;;;4916398;29;20275;-62
2023/01/05 05:40:48;;;;;;;4.03;1.30;;;;;;;;;;4916473;29;20203;-61
2023/01/05 05:43:15;;;;;;;9.63;1.63;;;;;;;;;;4916074;29;20612;-62
2023/01/05 05:45:59;;;;;;;3.57;1.07;;;;;;;;;;4903843;29;20183;-62
2023/01/05 05:48:26;;;;;;;9.33;1.50;;;;;;;;;;4915103;29;20713;-62
2023/01/05 05:50:53;;;;;;;5.63;1.20;;;;;;;;;;4915794;29;20255;-62
2023/01/05 05:53:19;;;;;;;6.20;1.50;;;;;;;;;;4908646;29;20196;-62
2023/01/05 05:55:46;;;;;;;9.23;1.40;;;;;;;;;;4912951;29;20199;-62
2023/01/05 05:58:13;;;;;;;7.93;1.47;;;;;;;;;;4913956;29;20192;-62
2023/01/05 06:00:40;;;;;;;8.70;1.93;;;;;;;;;;4915804;29;20567;-62
2023/01/05 06:03:06;;;;;;;7.90;1.63;;;;;;;;;;4912337;29;20188;-62
2023/01/05 06:05:33;;;;;;;6.53;1.63;;;;;;;;;;4920699;29;20747;-64
2023/01/05 06:08:00;;;;;;;6.43;1.63;;;;;;;;;;4910308;29;20210;-64
2023/01/05 06:10:27;;;;;;;8.20;1.80;;;;;;;;;;4916767;29;20199;-62
2023/01/05 06:13:12;;;;;;;8.93;1.93;;;;;;;;;;4912567;29;20845;-62
2023/01/05 06:15:38;;;;;;;6.13;1.73;;;;;;;;;;4909704;29;20199;-63
2023/01/05 06:18:05;;;;;;;6.90;1.60;;;;;;;;;;4912537;29;20224;-63
2023/01/05 06:20:32;;;;;;;2.57;1.20;;;;;;;;;;4918456;29;20555;-64
2023/01/05 06:22:59;;;;;;;5.77;1.30;;;;;;;;;;4922045;29;20201;-63
2023/01/05 06:25:25;;;;;;;6.30;1.40;;;;;;;;;;4910700;29;20235;-63
2023/01/05 06:27:52;;;;;;;4.40;1.13;;;;;;;;;;4910537;29;20199;-63
2023/01/05 06:30:19;;;;;;;6.00;1.30;;;;;;;;;;4912776;29;20202;-65
2023/01/05 06:32:45;;;;;;;6.30;1.50;;;;;;;;;;4911608;29;20223;-63
2023/01/05 06:35:12;;;;;;;4.10;1.20;;;;;;;;;;4915071;29;20198;-62
2023/01/05 06:37:39;;;;;;;2.97;1.00;;;;;;;;;;4920602;29;20286;-63
2023/01/05 06:40:07;;;;;;;2.90;0.60;;;;;;;;;;4914853;29;20195;-63
2023/01/05 06:42:34;;;;;;;4.87;1.20;;;;;;;;;;4915215;29;20226;-63
2023/01/05 06:45:00;;;;;;;2.73;0.80;;;;;;;;;;4914882;29;20239;-63
2023/01/05 06:47:45;;;;;;;2.77;0.83;;;;;;;;;;4914855;29;20191;-63
2023/01/05 06:50:11;;;;;;;3.30;0.93;;;;;;;;;;4914887;29;20192;-62
2023/01/05 06:52:56;;;;;;;3.17;0.70;;;;;;;;;;4914233;29;20219;-62
2023/01/05 06:55:22;;;;;;;4.40;0.60;;;;;;;;;;4916454;29;20207;-63
2023/01/05 06:57:49;;;;;;;3.53;1.10;;;;;;;;;;4914812;29;20206;-63
2023/01/05 07:00:22;;;;;;;3.27;1.00;;;;;;;;;;4914897;29;20744;-64
2023/01/05 07:02:49;;;;;;;1.50;0.80;;;;;;;;;;4931215;29;20238;-62
2023/01/05 07:05:16;;;;;;;1.43;0.50;;;;;;;;;;4933358;29;20297;-62
2023/01/05 07:07:43;;;;;;;1.20;0.40;;;;;;;;;;4933368;29;20199;-63
2023/01/05 07:10:09;;;;;;;1.30;0.60;;;;;;;;;;4933114;29;20294;-62
2023/01/05 07:12:36;;;;;;;2.00;0.90;;;;;;;;;;4928717;29;20218;-62
2023/01/05 07:15:04;;;;;;;3.63;1.00;;;;;;;;;;4932182;29;20550;-61
2023/01/05 07:17:31;;;;;;;2.00;1.00;;;;;;;;;;4933113;29;20201;-62
2023/01/05 07:19:58;;;;;;;2.87;0.70;;;;;;;;;;4933071;29;20191;-62
2023/01/05 07:22:27;;;;;;;3.23;0.70;;;;;;;;;;4932981;29;20910;-63
2023/01/05 07:24:53;;;;;;;3.17;0.83;;;;;;;;;;4934964;29;20191;-62
2023/01/05 07:27:20;;;;;;;3.47;0.80;;;;;;;;;;4952206;28;20273;-62
2023/01/05 07:29:47;;;;;;;1.80;0.80;;;;;;;;;;4952251;29;20198;-61
2023/01/05 07:32:13;;;;;;;3.13;0.70;;;;;;;;;;4952033;29;20210;-61
2023/01/05 07:34:40;;;;;;;1.33;0.60;;;;;;;;;;4951953;29;20206;-62
2023/01/05 07:37:20;;;;;;;0.97;0.40;;;;;;;;;;4951632;29;20204;-66
2023/01/05 07:40:04;;;;;;;1.53;0.90;;;;;;;;;;4951887;29;20189;-64
2023/01/05 07:42:31;;;;;;;3.27;1.30;;;;;;;;;;4952098;29;20302;-62
2023/01/05 07:44:58;;;;;;;3.37;0.97;;;;;;;;;;4929757;29;20194;-64
2023/01/05 07:47:25;;;;;;;2.37;1.03;;;;;;;;;;4909269;29;20195;-64
2023/01/05 07:49:52;;;;;;;3.97;1.07;;;;;;;;;;4911412;29;20199;-65
2023/01/05 07:52:18;;;;;;;2.27;0.80;;;;;;;;;;4930449;29;20214;-63
2023/01/05 07:54:45;;;;;;;2.90;1.10;;;;;;;;;;4930049;29;20190;-63
2023/01/05 07:57:12;;;;;;;4.53;1.63;;;;;;;;;;4931743;29;20195;-63
2023/01/05 07:59:39;;;;;;;2.87;1.10;;;;;;;;;;4929901;29;20218;-63
2023/01/05 08:02:05;;;;;;;2.97;1.30;;;;;;;;;;4929099;29;20186;-64
2023/01/05 08:04:33;;;;;;;2.47;1.00;;;;;;;;;;4926826;29;20202;-64
2023/01/05 08:07:17;;;;;;;1.80;0.80;;;;;;;;;;4931896;29;20186;-65
2023/01/05 08:12:30;;;;;;;1.53;0.60;;;;;;;;;;4928083;29;20223;-63
2023/01/05 08:14:56;;;;;;;3.33;1.03;;;;;;;;;;4932905;29;20194;-63
2023/01/05 08:17:23;;;;;;;1.70;0.50;;;;;;;;;;4911840;29;20230;-63
2023/01/05 08:20:08;;;;;;;4.10;0.93;;;;;;;;;;4928298;29;20663;-64
2023/01/05 08:22:35;;;;;;;4.33;0.80;;;;;;;;;;4928476;29;20232;-62
2023/01/05 08:25:03;;;;;;;2.90;0.80;;;;;;;;;;4928179;29;20242;-66
2023/01/05 08:27:29;;;;;;;4.13;1.30;;;;;;;;;;4915871;29;20191;-64
2023/01/05 08:29:56;;;;;;;4.13;1.23;;;;;;;;;;4929565;29;20202;-65
2023/01/05 08:32:23;;;;;;;4.00;1.20;;;;;;;;;;4928754;29;20215;-65
2023/01/05 08:34:50;;;;;;;2.27;0.90;;;;;;;;;;4928355;29;20226;-66
2023/01/05 08:37:21;;;;;;;6.10;1.47;;;;;;;;;;4932217;29;20195;-67
2023/01/05 08:39:47;;;;;;;4.17;1.10;;;;;;;;;;4933069;29;20186;-64
2023/01/05 08:42:14;;;;;;;3.33;1.50;;;;;;;;;;4935351;29;20539;-65
2023/01/05 08:44:41;;;;;;;3.90;1.20;;;;;;;;;;4932017;29;20604;-62
2023/01/05 08:47:26;;;;;;;3.00;0.80;;;;;;;;;;4926216;29;20407;-65
2023/01/05 08:49:54;;;;;;;2.40;0.73;;;;;;;;;;4918977;29;20190;-64
2023/01/05 08:52:22;;;;;;;3.70;1.10;;;;;;;;;;4931682;29;20298;-64
2023/01/05 08:54:49;;;;;;;4.23;0.80;;;;;;;;;;4931571;29;20746;-62
2023/01/05 08:57:15;;;;;;;2.37;1.20;;;;;;;;;;4943705;29;20195;-63
2023/01/05 08:59:42;;;;;;;3.63;1.00;;;;;;;;;;4935316;29;20191;-63
2023/01/05 09:02:09;;;;;;;5.23;1.10;;;;;;;;;;4936961;29;20218;-63
2023/01/05 09:04:36;;;;;;;1.57;1.00;;;;;;;;;;4942591;29;20264;-63
2023/01/05 09:07:03;;;;;;;2.67;1.30;;;;;;;;;;4940431;29;20233;-63
2023/01/05 09:09:30;;;;;;;6.43;1.17;;;;;;;;;;4940956;29;20202;-62
2023/01/05 09:11:57;;;;;;;2.90;1.20;;;;;;;;;;4940471;29;20198;-62
2023/01/05 09:14:23;;;;;;;3.17;1.47;;;;;;;;;;4942306;29;20199;-63
2023/01/05 09:16:50;;;;;;;1.70;0.97;;;;;;;;;;4932462;29;20286;-63
2023/01/05 09:19:34;;;;;;;4.53;1.80;;;;;;;;;;4932516;29;20195;-63
2023/01/05 09:22:01;;;;;;;3.63;1.40;;;;;;;;;;4931431;29;20209;-62
2023/01/05 09:24:28;;;;;;;3.50;1.20;;;;;;;;;;4932743;29;20194;-63
2023/01/05 09:26:55;;;;;;;4.30;1.47;;;;;;;;;;4916810;29;20705;-62
2023/01/05 09:29:22;;;;;;;3.50;1.50;;;;;;;;;;4932698;29;20238;-65
2023/01/05 09:31:49;;;;;;;7.87;1.53;;;;;;;;;;4938294;29;20291;-64
2023/01/05 09:34:17;;;;;;;4.57;1.67;;;;;;;;;;4950080;29;20198;-62
2023/01/05 09:36:45;;;;;;;3.57;1.07;;;;;;;;;;4933269;29;20199;-62
2023/01/05 09:39:11;;;;;;;2.80;1.20;;;;;;;;;;4931966;29;20895;-62
2023/01/05 09:41:42;;;;;;;5.03;1.33;;;;;;;;;;4917008;29;20221;-62
2023/01/05 09:44:14;;;;;;;2.33;1.00;;;;;;;;;;4936481;29;20217;-63
2023/01/05 09:46:41;;;;;;;4.23;1.17;;;;;;;;;;4925849;29;20238;-62
2023/01/05 09:49:12;;;;;;;2.23;1.03;;;;;;;;;;4917190;29;20281;-63
2023/01/05 09:51:39;;;;;;;3.73;1.10;;;;;;;;;;4928282;29;20292;-63
2023/01/05 09:54:07;;;;;;;4.13;0.90;;;;;;;;;;4930713;29;20275;-63
2023/01/05 09:56:35;;;;;;;2.60;0.70;;;;;;;;;;4921014;29;20227;-63
2023/01/05 09:59:29;;;;;;;3.27;0.80;;;;;;;;;;4917025;29;20321;-64
2023/01/05 10:01:58;;;;;;;1.90;0.80;;;;;;;;;;4915975;29;20199;-63
2023/01/05 10:04:42;;;;;;;2.00;0.90;;;;;;;;;;4929944;29;20674;-64
2023/01/05 10:07:14;;;;;;;2.43;1.17;;;;;;;;;;4929910;29;20201;-65
2023/01/05 10:09:41;;;;;;;2.03;0.80;;;;;;;;;;4919923;29;20205;-64
2023/01/05 10:15:14;;;;;;;3.30;1.10;;;;;;;;;;4931320;29;20186;-63
2023/01/05 10:17:41;;;;;;;1.90;0.60;;;;;;;;;;4914604;29;20187;-64
2023/01/05 10:20:34;;;;;;;1.40;0.60;;;;;;;;;;4930957;29;20187;-65
2023/01/05 10:23:05;;;;;;;2.10;0.80;;;;;;;;;;4914641;29;20194;-63
2023/01/05 10:25:53;;;;;;;1.77;0.70;;;;;;;;;;4930197;28;20229;-64
2023/01/05 10:28:32;;;;;;;2.70;0.90;;;;;;;;;;4936176;29;20210;-65
2023/01/05 10:31:00;;;;;;;3.47;0.97;;;;;;;;;;4898006;29;20249;-65
2023/01/05 10:33:47;;;;;;;1.50;0.80;;;;;;;;;;4914551;29;20306;-64
2023/01/05 10:36:32;;;;;;;4.83;1.20;;;;;;;;;;4936827;29;20280;-63
2023/01/05 10:39:28;;;;;;;4.10;1.23;;;;;;;;;;4925210;29;20277;-63
2023/01/05 10:42:14;;;;;;;3.80;1.20;;;;;;;;;;4931208;29;20225;-63
2023/01/05 10:44:50;;;;;;;3.13;0.80;;;;;;;;;;4918947;29;20194;-63
2023/01/05 10:47:17;;;;;;;1.60;0.80;;;;;;;;;;4903685;29;20286;-63
2023/01/05 10:49:44;;;;;;;4.17;1.13;;;;;;;;;;4931616;29;20206;-62
2023/01/05 10:52:13;;;;;;;3.83;1.17;;;;;;;;;;4930759;29;20215;-64
2023/01/05 10:54:42;;;;;;;7.00;1.57;;;;;;;;;;4931293;29;20199;-64
2023/01/05 10:57:27;;;;;;;3.00;1.47;;;;;;;;;;4930498;29;20599;-64
2023/01/05 11:00:03;;;;;;;8.57;1.60;;;;;;;;;;4930310;29;20238;-62
2023/01/05 11:02:31;;;;;;;5.40;1.70;;;;;;;;;;4936427;29;20205;-61
2023/01/05 11:05:36;;;;;;;5.00;1.90;;;;;;;;;;4946101;29;20261;-63
2023/01/05 11:08:04;;;;;;;4.10;1.27;;;;;;;;;;4928657;29;21033;-64
2023/01/05 11:10:34;;;;;;;8.23;1.93;;;;;;;;;;4929722;29;20187;-63
2023/01/05 11:13:05;;;;;;;6.33;1.80;;;;;;;;;;4917907;29;20714;-62
2023/01/05 11:15:52;;;;;;;3.63;1.60;;;;;;;;;;4906279;29;20190;-62
2023/01/05 11:18:26;;;;;;;5.10;2.20;;;;;;;;;;4922641;29;20609;-60
2023/01/05 11:21:12;;;;;;;3.43;2.00;;;;;;;;;;4930574;29;20171;-61
2023/01/05 11:23:42;;;;;;;5.00;2.00;;;;;;;;;;4913612;29;20205;-61
2023/01/05 11:26:18;;;;;;;1.90;1.20;;;;;;;;;;4929980;29;20233;-61
2023/01/05 11:29:04;;;;;;;3.57;1.07;;;;;;;;;;4912916;29;20204;-61
2023/01/05 11:31:43;;;;;;;1.23;0.63;;;;;;;;;;4929425;29;20202;-64
2023/01/05 11:34:10;;;;;;;2.17;0.77;;;;;;;;;;4913381;29;20646;-61
2023/01/05 11:36:37;;;;;;;1.80;0.80;;;;;;;;;;4929240;29;20600;-63
2023/01/05 11:39:05;;;;;;;1.07;0.60;;;;;;;;;;4915843;29;20195;-61
2023/01/05 11:41:31;;;;;;;2.93;1.10;;;;;;;;;;4928839;29;20206;-63
2023/01/05 11:44:02;;;;;;;3.60;1.43;;;;;;;;;;4912967;29;20213;-62
2023/01/05 11:46:38;;;;;;;2.47;0.90;;;;;;;;;;4918870;29;20250;-62
2023/01/05 11:49:06;;;;;;;3.17;1.30;;;;;;;;;;4913422;29;20197;-61
2023/01/05 11:51:33;;;;;;;4.63;1.40;;;;;;;;;;4913099;29;20920;-63
2023/01/05 11:54:00;;;;;;;3.00;1.30;;;;;;;;;;4929633;29;20232;-62
2023/01/05 11:56:27;;;;;;;4.67;1.40;;;;;;;;;;4930162;29;20199;-62
2023/01/05 11:58:54;;;;;;;3.23;1.20;;;;;;;;;;4929914;29;20198;-61
2023/01/05 12:01:36;;;;;;;2.30;1.10;;;;;;;;;;4929433;29;20274;-60
2023/01/05 12:04:09;;;;;;;1.73;1.07;;;;;;;;;;4930809;29;20241;-60
2023/01/05 12:06:54;;;;;;;3.77;0.80;;;;;;;;;;4932800;29;20654;-60
2023/01/05 12:09:46;;;;;;;2.47;1.10;;;;;;;;;;4933158;29;20567;-60
2023/01/05 12:12:32;;;;;;;4.70;2.00;;;;;;;;;;4899085;29;20289;-60
2023/01/05 12:15:02;;;;;;;4.57;2.70;;;;;;;;;;4932423;29;20263;-60
2023/01/05 12:17:33;;;;;;;4.37;2.07;;;;;;;;;;4927946;29;20856;-61
2023/01/05 12:20:20;;;;;;;2.43;1.50;;;;;;;;;;4937567;29;20202;-61
2023/01/05 12:22:50;;;;;;;3.70;1.50;;;;;;;;;;4922693;29;20208;-61
2023/01/05 12:25:35;;;;;;;2.70;1.67;;;;;;;;;;4928748;29;20234;-61
2023/01/05 12:28:09;;;;;;;5.87;2.50;;;;;;;;;;4917125;29;20201;-63
2023/01/05 12:31:05;;;;;;;10.50;3.13;;;;;;;;;;4937466;29;20194;-61
2023/01/05 12:34:11;;;;;;;15.10;4.73;;;;;;;;;;4928469;29;20580;-61
2023/01/05 12:36:55;;;;;;;11.20;3.80;;;;;;;;;;4929206;29;20186;-61
2023/01/05 12:39:31;;;;;;;8.77;3.40;;;;;;;;;;4929766;29;20223;-62
2023/01/05 12:42:16;;;;;;;13.07;5.67;;;;;;;;;;4934114;29;20205;-62
2023/01/05 12:44:52;;;;;;;4.90;2.43;;;;;;;;;;4929386;29;20202;-62
2023/01/05 12:47:51;;;;;;;3.03;1.17;;;;;;;;;;4930210;29;20191;-61
2023/01/05 12:50:21;;;;;;;3.77;1.63;;;;;;;;;;4890742;29;20218;-61
2023/01/05 12:52:49;;;;;;;3.43;1.40;;;;;;;;;;4929009;29;20219;-62
2023/01/05 12:55:21;;;;;;;4.97;1.60;;;;;;;;;;4929393;29;20269;-61
2023/01/05 12:57:51;;;;;;;3.80;1.40;;;;;;;;;;4928230;29;20630;-61
2023/01/05 13:00:18;;;;;;;4.73;1.80;;;;;;;;;;4939042;28;20221;-61
2023/01/05 13:02:52;;;;;;;2.53;1.50;;;;;;;;;;4938218;29;20332;-62
2023/01/05 13:05:39;;;;;;;2.97;1.53;;;;;;;;;;4911817;29;20198;-62
2023/01/05 13:08:14;;;;;;;2.53;1.50;;;;;;;;;;4913036;29;20235;-61
2023/01/05 13:10:52;;;;;;;1.80;1.20;;;;;;;;;;4942603;29;20187;-60
2023/01/05 13:13:21;;;;;;;2.30;1.33;;;;;;;;;;4916523;29;20230;-61
2023/01/05 13:15:47;;;;;;;2.57;1.80;;;;;;;;;;4910825;29;20195;-62
2023/01/05 13:18:15;;;;;;;1.33;1.20;;;;;;;;;;4928649;29;20202;-62
2023/01/05 13:20:43;;;;;;;2.27;1.17;;;;;;;;;;4925341;29;20998;-61
2023/01/05 13:23:13;;;;;;;1.43;0.90;;;;;;;;;;4947662;28;20202;-61
2023/01/05 13:25:47;;;;;;;1.23;0.77;;;;;;;;;;4923394;29;20818;-61
2023/01/05 13:28:16;;;;;;;2.20;0.70;;;;;;;;;;4932546;29;20870;-61
2023/01/05 13:30:52;;;;;;;0.80;0.50;;;;;;;;;;4916570;29;20245;-61
2023/01/05 13:33:31;;;;;;;0.60;0.50;;;;;;;;;;4932522;29;20206;-60
2023/01/05 13:36:04;;;;;;;2.03;0.60;;;;;;;;;;4918093;29;20229;-61
2023/01/05 13:38:31;;;;;;;0.83;0.50;;;;;;;;;;4934047;29;20238;-60
2023/01/05 13:41:02;;;;;;;1.67;0.60;;;;;;;;;;4951886;29;20705;-61
2023/01/05 13:43:47;;;;;;;0.87;0.50;;;;;;;;;;4952018;29;20257;-59
2023/01/05 13:46:18;;;;;;;1.60;0.80;;;;;;;;;;4935657;29;20305;-60
2023/01/05 13:48:45;;;;;;;1.33;0.80;;;;;;;;;;4933225;29;20926;-60
2023/01/05 13:51:47;;;;;;;1.43;0.50;;;;;;;;;;4903463;29;20475;-60
2023/01/05 13:54:16;;;;;;;1.10;0.70;;;;;;;;;;4912819;29;20474;-60
2023/01/05 13:56:45;;;;;;;2.23;1.00;;;;;;;;;;4935751;29;20190;-60
2023/01/05 13:59:18;;;;;;;1.33;0.97;;;;;;;;;;4912834;29;20941;-60
2023/01/05 14:02:02;;;;;;;2.43;1.00;;;;;;;;;;4925325;29;20427;-63
2023/01/05 14:04:30;;;;;;;2.70;1.10;;;;;;;;;;4933537;29;20496;-60
2023/01/05 14:07:03;;;;;;;2.97;1.50;;;;;;;;;;4929502;29;20439;-61
2023/01/05 14:09:34;;;;;;;4.03;1.80;;;;;;;;;;4930832;29;20445;-60
2023/01/05 14:12:07;;;;;;;1.77;1.27;;;;;;;;;;4913315;29;20478;-60
2023/01/05 14:14:55;;;;;;;2.50;1.47;;;;;;;;;;4921175;29;21350;-61
2023/01/05 14:17:44;;;;;;;3.13;1.43;;;;;;;;;;4894609;29;20871;-60
2023/01/05 14:20:29;;;;;;;2.47;1.30;;;;;;;;;;4930207;29;20191;-60
2023/01/05 14:23:24;;;;;;;2.43;1.30;;;;;;;;;;4919992;29;20428;-61
2023/01/05 14:26:06;;;;;;;4.53;1.60;;;;;;;;;;4933577;29;20230;-60
2023/01/05 14:28:33;;;;;;;3.60;1.17;;;;;;;;;;4931411;29;20505;-60
2023/01/05 14:31:17;;;;;;;3.90;1.30;;;;;;;;;;4931472;29;20443;-61
2023/01/05 14:33:51;;;;;;;2.40;2.00;;;;;;;;;;4930988;29;20569;-61
2023/01/05 14:36:27;;;;;;;2.57;1.53;;;;;;;;;;4931930;29;20453;-61
2023/01/05 14:38:54;;;;;;;1.70;1.37;;;;;;;;;;4930799;29;20538;-61
2023/01/05 14:41:22;;;;;;;3.23;1.60;;;;;;;;;;4931091;29;21168;-61
2023/01/05 14:44:05;;;;;;;1.70;1.47;;;;;;;;;;4930567;29;20441;-61
2023/01/05 14:46:53;;;;;;;1.77;1.20;;;;;;;;;;4929875;29;20434;-62
2023/01/05 14:49:21;;;;;;;1.73;1.40;;;;;;;;;;4928625;29;20533;-61
2023/01/05 14:51:52;;;;;;;3.40;1.43;;;;;;;;;;4903593;29;21190;-63
2023/01/05 14:54:33;;;;;;;4.10;2.07;;;;;;;;;;4932346;28;20484;-62
2023/01/05 14:57:18;;;;;;;5.43;1.40;;;;;;;;;;4929864;29;20557;-63
2023/01/05 14:59:45;;;;;;;2.00;1.67;;;;;;;;;;4913156;29;20537;-62
2023/01/05 15:02:21;;;;;;;3.60;1.90;;;;;;;;;;4928975;29;20435;-62
2023/01/05 15:04:47;;;;;;;4.60;1.83;;;;;;;;;;4933685;28;20958;-62
2023/01/05 15:07:21;;;;;;;3.97;1.90;;;;;;;;;;4928237;29;21332;-61
2023/01/05 15:09:50;;;;;;;2.67;1.93;;;;;;;;;;4936539;29;20449;-62
2023/01/05 15:12:24;;;;;;;4.03;2.00;;;;;;;;;;4939641;28;20507;-62
2023/01/05 15:14:57;;;;;;;3.20;1.83;;;;;;;;;;4915763;29;20491;-62
2023/01/05 15:17:29;;;;;;;2.43;1.70;;;;;;;;;;4934055;29;20440;-62
2023/01/05 15:20:12;;;;;;;3.33;2.07;;;;;;;;;;4933625;29;21018;-62
2023/01/05 15:23:08;;;;;;;3.43;2.07;;;;;;;;;;4924806;29;20449;-62
2023/01/05 15:25:41;;;;;;;4.63;2.20;;;;;;;;;;4931932;29;20573;-62
2023/01/05 15:28:26;;;;;;;5.37;2.17;;;;;;;;;;4944563;29;20478;-61
2023/01/05 15:31:12;;;;;;;3.37;2.03;;;;;;;;;;4922824;29;20449;-62
2023/01/05 15:33:48;;;;;;;4.50;2.10;;;;;;;;;;4913987;29;20472;-62
2023/01/05 15:36:29;;;;;;;2.57;1.80;;;;;;;;;;4934434;29;20488;-62
2023/01/05 15:39:26;;;;;;;5.27;3.50;;;;;;;;;;4926585;29;20455;-61
2023/01/05 15:41:54;;;;;;;4.43;2.20;;;;;;;;;;4921603;28;20457;-60
2023/01/05 15:44:21;;;;;;;3.77;2.53;;;;;;;;;;4932017;29;20464;-62
2023/01/05 15:46:48;;;;;;;5.27;2.90;;;;;;;;;;4917181;29;20468;-62
2023/01/05 15:49:24;;;;;;;4.63;2.50;;;;;;;;;;4927898;29;20445;-61
2023/01/05 15:51:51;;;;;;;3.90;2.50;;;;;;;;;;4929387;28;20527;-60
2023/01/05 15:54:19;;;;;;;4.93;2.80;;;;;;;;;;4935053;29;20485;-61
2023/01/05 15:56:46;;;;;;;4.40;3.17;;;;;;;;;;4935444;29;20465;-61
2023/01/05 15:59:18;;;;;;;4.37;2.53;;;;;;;;;;4936051;29;21146;-60
2023/01/05 16:01:45;;;;;;;4.03;2.60;;;;;;;;;;4924236;29;20824;-61
2023/01/05 16:04:12;;;;;;;6.57;3.10;;;;;;;;;;4935649;29;21185;-63
2023/01/05 16:06:58;;;;;;;6.03;3.30;;;;;;;;;;4921836;29;20437;-61
2023/01/05 16:09:34;;;;;;;5.50;2.67;;;;;;;;;;4928544;29;20485;-60
2023/01/05 16:12:08;;;;;;;4.13;2.90;;;;;;;;;;4911518;29;20582;-63
2023/01/05 16:14:39;;;;;;;4.47;2.43;;;;;;;;;;4928292;29;20493;-61
2023/01/05 16:17:10;;;;;;;4.53;2.23;;;;;;;;;;4929150;29;20452;-61
2023/01/05 16:19:52;;;;;;;5.03;2.43;;;;;;;;;;4931790;29;20771;-62
2023/01/05 16:22:25;;;;;;;4.13;2.70;;;;;;;;;;4933850;29;20457;-60
2023/01/05 16:24:56;;;;;;;5.77;3.43;;;;;;;;;;4939849;29;20480;-61
2023/01/05 16:27:23;;;;;;;8.87;4.40;;;;;;;;;;4944083;28;20505;-62